createdAt,value
2023-08-11T00:01:34.438Z,69.55
2023-08-11T00:06:35.729Z,69.19
2023-08-11T00:11:36.979Z,67.49
2023-08-11T00:16:38.350Z,67.47
2023-08-11T00:21:39.647Z,67.81
2023-08-11T00:26:41.083Z,68.24
2023-08-11T00:31:43.091Z,69.75
2023-08-11T00:36:44.520Z,70.29
2023-08-11T00:41:47.133Z,69.60
2023-08-11T00:46:48.973Z,69.31
2023-08-11T00:51:50.359Z,69.69
2023-08-11T00:56:51.910Z,69.11
2023-08-11T01:01:53.179Z,68.65
2023-08-11T01:06:54.530Z,69.22
2023-08-11T01:11:55.806Z,69.31
2023-08-11T01:16:57.082Z,69.30
2023-08-11T01:21:58.402Z,70.28
2023-08-11T01:26:59.848Z,70.13
2023-08-11T01:32:01.181Z,69.25
2023-08-11T01:37:02.518Z,69.31
2023-08-11T01:42:03.895Z,71.05
2023-08-11T01:47:05.760Z,69.78
2023-08-11T01:52:07.852Z,70.60
2023-08-11T01:57:09.272Z,69.47
2023-08-11T02:02:10.735Z,69.38
2023-08-11T02:07:12.000Z,69.41
2023-08-11T02:12:13.347Z,70.62
2023-08-11T02:17:14.756Z,70.78
2023-08-11T02:22:16.045Z,70.65
2023-08-11T02:27:18.437Z,70.71
2023-08-11T02:32:20.688Z,70.94
2023-08-11T02:37:21.972Z,71.26
2023-08-11T02:42:24.544Z,71.17
2023-08-11T02:47:25.912Z,70.42
2023-08-11T02:52:27.562Z,70.62
2023-08-11T02:57:28.821Z,70.41
2023-08-11T03:02:30.101Z,70.02
2023-08-11T03:07:32.354Z,70.71
2023-08-11T03:12:33.801Z,71.06
2023-08-11T03:17:36.582Z,70.71
2023-08-11T03:22:38.038Z,70.43
2023-08-11T03:27:40.941Z,71.72
2023-08-11T03:32:42.578Z,70.94
2023-08-11T03:37:44.086Z,70.61
2023-08-11T03:42:45.334Z,71.10
2023-08-11T03:47:46.596Z,70.83
2023-08-11T03:52:48.577Z,70.65
2023-08-11T03:57:49.803Z,70.66
2023-08-11T04:02:51.072Z,71.20
2023-08-11T04:07:52.425Z,71.06
2023-08-11T04:12:53.697Z,71.66
2023-08-11T04:17:55.079Z,71.42
2023-08-11T04:22:57.214Z,72.21
2023-08-11T04:28:00.005Z,73.31
2023-08-11T04:33:01.642Z,72.51
2023-08-11T04:38:03.288Z,71.50
2023-08-11T04:43:05.363Z,71.82
2023-08-11T04:48:06.709Z,72.38
2023-08-11T04:53:07.980Z,73.52
2023-08-11T04:58:10.367Z,73.08
2023-08-11T05:03:12.079Z,72.69
2023-08-11T05:08:13.459Z,72.63
2023-08-11T05:13:14.910Z,73.13
2023-08-11T05:18:16.174Z,73.44
2023-08-11T05:23:17.420Z,74.15
2023-08-11T05:28:18.663Z,73.62
2023-08-11T05:33:19.888Z,73.71
2023-08-11T05:38:21.132Z,75.67
2023-08-11T05:43:22.399Z,74.91
2023-08-11T05:48:23.714Z,71.93
2023-08-11T05:53:24.989Z,71.64
2023-08-11T05:58:26.270Z,70.58
2023-08-11T06:03:31.346Z,69.77
2023-08-11T06:08:32.634Z,68.76
2023-08-11T06:13:33.953Z,67.95
2023-08-11T06:18:35.283Z,66.64
2023-08-11T06:23:36.536Z,66.37
2023-08-11T06:28:37.761Z,65.75
2023-08-11T06:33:39.080Z,65.95
2023-08-11T06:38:40.533Z,66.64
2023-08-11T06:43:42.723Z,65.51
2023-08-11T06:48:44.039Z,65.73
2023-08-11T06:53:45.321Z,66.12
2023-08-11T06:58:46.805Z,66.11
2023-08-11T07:03:48.085Z,66.81
2023-08-11T07:08:49.338Z,65.92
2023-08-11T07:13:50.589Z,63.84
2023-08-11T07:18:51.859Z,63.60
2023-08-11T07:23:53.166Z,60.72
2023-08-11T07:28:54.384Z,62.19
2023-08-11T07:33:55.625Z,62.41
2023-08-11T07:39:09.043Z,63.04
2023-08-11T07:44:18.288Z,61.29
2023-08-11T07:49:19.660Z,62.29
2023-08-11T07:54:21.231Z,60.39
2023-08-11T07:59:22.620Z,60.68
2023-08-11T08:04:30.420Z,59.31
2023-08-11T08:09:35.018Z,59.70
2023-08-11T08:14:36.476Z,56.92
2023-08-11T08:19:37.862Z,57.81
2023-08-11T08:24:39.701Z,56.42
2023-08-11T08:29:41.009Z,55.65
2023-08-11T08:34:42.275Z,55.80
2023-08-11T08:39:44.581Z,55.04
2023-08-11T08:44:45.961Z,54.98
2023-08-11T08:49:50.269Z,54.31
2023-08-11T08:54:51.539Z,57.59
2023-08-11T08:59:52.874Z,56.30
2023-08-11T09:04:54.163Z,54.08
2023-08-11T09:09:55.480Z,51.94
2023-08-11T09:14:57.184Z,49.21
2023-08-11T09:19:59.116Z,49.13
2023-08-11T09:25:00.444Z,49.75
2023-08-11T09:30:01.709Z,50.85
2023-08-11T09:35:03.962Z,50.45
2023-08-11T09:40:06.101Z,47.74
2023-08-11T09:45:07.332Z,48.74
2023-08-11T09:50:11.732Z,46.11
2023-08-11T09:55:13.818Z,48.25
2023-08-11T10:00:15.360Z,47.26
2023-08-11T10:05:17.009Z,49.09
2023-08-11T10:10:18.325Z,46.15
2023-08-11T10:15:19.785Z,48.56
2023-08-11T10:20:21.776Z,45.31
2023-08-11T10:25:24.843Z,45.10
2023-08-11T10:30:26.062Z,49.30
2023-08-11T10:35:27.374Z,44.20
2023-08-11T10:40:28.682Z,45.77
2023-08-11T10:45:29.939Z,41.73
2023-08-11T10:50:31.250Z,44.58
2023-08-11T10:55:32.482Z,41.63
2023-08-11T11:00:34.149Z,44.71
2023-08-11T11:05:35.430Z,41.73
2023-08-11T11:10:49.232Z,43.43
2023-08-11T11:15:52.085Z,42.47
2023-08-11T11:20:53.380Z,42.87
2023-08-11T11:25:54.602Z,41.41
2023-08-11T11:30:55.835Z,41.13
2023-08-11T11:35:57.217Z,42.11
2023-08-11T11:40:58.454Z,40.83
2023-08-11T11:45:59.792Z,39.97
2023-08-11T11:51:04.262Z,44.09
2023-08-11T11:56:06.142Z,37.63
2023-08-11T12:01:07.356Z,36.36
2023-08-11T12:06:11.686Z,38.01
2023-08-11T12:11:12.981Z,37.40
2023-08-11T12:16:14.256Z,36.19
2023-08-11T12:21:15.531Z,39.49
2023-08-11T12:26:16.761Z,38.51
2023-08-11T12:31:18.019Z,38.66
2023-08-11T12:36:19.433Z,35.88
2023-08-11T12:41:21.258Z,35.73
2023-08-11T12:46:22.590Z,38.15
2023-08-11T12:51:23.970Z,35.07
2023-08-11T12:56:26.726Z,34.86
2023-08-11T13:01:28.184Z,37.38
2023-08-11T13:06:29.482Z,38.87
2023-08-11T13:11:30.894Z,34.49
2023-08-11T13:16:32.238Z,34.18
2023-08-11T13:21:33.696Z,34.59
2023-08-11T13:26:35.062Z,32.80
2023-08-11T13:31:36.504Z,32.66
2023-08-11T13:36:38.218Z,32.39
2023-08-11T13:41:40.851Z,34.30
2023-08-11T13:46:42.144Z,32.22
2023-08-11T13:51:43.397Z,32.38
2023-08-11T13:56:44.634Z,31.83
2023-08-11T14:01:46.083Z,33.18
2023-08-11T14:06:47.398Z,33.24
2023-08-11T14:11:49.852Z,33.62
2023-08-11T14:16:51.186Z,32.43
2023-08-11T14:21:52.721Z,31.24
2023-08-11T14:26:54.029Z,32.71
2023-08-11T14:31:57.486Z,32.04
2023-08-11T14:37:02.546Z,33.58
2023-08-11T14:42:03.827Z,32.93
2023-08-11T14:47:06.481Z,32.04
2023-08-11T14:52:08.332Z,31.47
2023-08-11T14:57:13.906Z,31.67
2023-08-11T15:02:15.368Z,30.04
2023-08-11T15:07:16.639Z,31.68
2023-08-11T15:12:18.760Z,30.92
2023-08-11T15:17:20.311Z,33.23
2023-08-11T15:22:21.703Z,30.26
2023-08-11T15:27:23.089Z,32.11
2023-08-11T15:32:24.413Z,31.47
2023-08-11T15:37:25.669Z,30.56
2023-08-11T15:42:27.012Z,30.69
2023-08-11T15:47:28.381Z,29.47
2023-08-11T15:52:29.741Z,31.46
2023-08-11T15:57:30.973Z,29.23
2023-08-11T16:02:32.449Z,31.36
2023-08-11T16:07:34.141Z,34.53
2023-08-11T16:12:35.469Z,34.56
2023-08-11T16:17:37.313Z,33.00
2023-08-11T16:22:38.724Z,32.71
2023-08-11T16:27:41.140Z,34.96
2023-08-11T16:32:42.517Z,32.74
2023-08-11T16:37:43.847Z,34.58
2023-08-11T16:42:45.161Z,33.43
2023-08-11T16:47:46.776Z,32.97
2023-08-11T16:52:48.166Z,33.63
2023-08-11T16:57:49.494Z,34.17
2023-08-11T17:02:50.790Z,35.40
2023-08-11T17:07:52.140Z,35.57
2023-08-11T17:12:53.529Z,36.05
2023-08-11T17:17:55.089Z,35.59
2023-08-11T17:22:56.645Z,36.80
2023-08-11T17:27:58.922Z,36.95
2023-08-11T17:33:00.235Z,39.31
2023-08-11T17:38:02.208Z,43.12
2023-08-11T17:43:03.465Z,44.13
2023-08-11T17:48:04.787Z,45.20
2023-08-11T17:53:06.017Z,46.89
2023-08-11T17:58:07.273Z,47.71
2023-08-11T18:03:08.684Z,48.15
2023-08-11T18:08:10.067Z,50.23
2023-08-11T18:13:11.276Z,50.37
2023-08-11T18:18:12.583Z,51.61
2023-08-11T18:23:13.890Z,51.53
2023-08-11T18:28:15.151Z,50.85
2023-08-11T18:33:16.475Z,51.84
2023-08-11T18:38:17.771Z,52.95
2023-08-11T18:43:19.035Z,53.65
2023-08-11T18:48:20.302Z,53.79
2023-08-11T18:53:21.656Z,54.70
2023-08-11T18:58:23.316Z,54.72
2023-08-11T19:03:24.698Z,55.24
2023-08-11T19:08:26.101Z,54.81
2023-08-11T19:13:27.331Z,56.10
2023-08-11T19:18:28.612Z,57.16
2023-08-11T19:23:29.883Z,57.29
2023-08-11T19:28:32.798Z,58.49
2023-08-11T19:33:34.280Z,59.00
2023-08-11T19:38:42.227Z,60.45
2023-08-11T19:43:43.583Z,60.74
2023-08-11T19:48:44.886Z,61.43
2023-08-11T19:53:46.149Z,61.01
2023-08-11T19:58:47.399Z,60.83
2023-08-11T20:03:48.689Z,60.81
2023-08-11T20:08:49.985Z,61.59
2023-08-11T20:13:51.209Z,60.87
2023-08-11T20:18:52.505Z,61.50
2023-08-11T20:23:53.721Z,64.12
2023-08-11T20:28:55.056Z,65.14
2023-08-11T20:33:56.358Z,64.67
2023-08-11T20:38:57.643Z,64.47
2023-08-11T20:43:58.971Z,65.85
2023-08-11T20:49:00.219Z,65.55
2023-08-11T20:54:01.420Z,66.21
2023-08-11T20:59:02.757Z,66.70
2023-08-11T21:04:04.057Z,67.32
2023-08-11T21:09:06.027Z,66.88
2023-08-11T21:14:07.297Z,67.66
2023-08-11T21:19:08.763Z,67.69
2023-08-11T21:24:10.043Z,67.42
2023-08-11T21:29:11.340Z,67.83
2023-08-11T21:34:12.608Z,67.61
2023-08-11T21:39:14.073Z,67.24
2023-08-11T21:44:16.848Z,68.46
2023-08-11T21:49:18.056Z,68.90
2023-08-11T21:54:19.258Z,67.82
2023-08-11T21:59:20.564Z,67.88
2023-08-11T22:04:21.948Z,68.36
2023-08-11T22:09:23.317Z,68.62
2023-08-11T22:14:24.556Z,69.18
2023-08-11T22:19:25.783Z,69.60
2023-08-11T22:24:39.915Z,69.05
2023-08-11T22:29:45.070Z,69.59
2023-08-11T22:34:52.712Z,70.77
2023-08-11T22:39:53.981Z,70.81
2023-08-11T22:44:55.400Z,70.46
2023-08-11T22:49:56.809Z,70.25
2023-08-11T22:54:58.099Z,71.28
2023-08-11T22:59:59.844Z,70.62
2023-08-11T23:05:01.121Z,71.13
2023-08-11T23:10:02.440Z,71.12
2023-08-11T23:15:04.368Z,71.55
2023-08-11T23:20:06.631Z,71.21
2023-08-11T23:25:08.270Z,70.86
2023-08-11T23:30:10.528Z,71.18
2023-08-11T23:35:11.779Z,70.96
2023-08-11T23:40:13.414Z,70.82
2023-08-11T23:45:14.758Z,71.61
2023-08-11T23:50:16.013Z,71.38
2023-08-11T23:55:17.425Z,71.41
